Farina, Illinois
Current Conditions -  °F | °C
As of 2:15 PM on Sunday 25 Jan 2015 (Local Time) from KSLO Reporting Station
Moderate Rain Moderate Rain  
Wind Chill: 42°   Ceiling: 900
Heat Index: 45°   Visibility: 7mi
Dew Point: 42°   Wind: 6mph
Humidity: 90%   Direction: 340°NNW
Pressure: 29.58"   Gusts: NA
Location:  38.83°N, 88.77°W
Report Text: KSLO 252015Z AUTO 34005KT 7SM RA OVC009 07/06 A2958 RMK AO2 T00710056
Loading
Personal Weather Stations






























Interactive Weather Map New forecast layout! Learn more

10-Day Weather Forecast

Advertisements
Track Severe Weather on mobile